sensor_id;sensor_type;location;lat;lon;timestamp;temperature;humidity
66928;DHT22;59882;45.624;11.698;2023-04-01T00:00:52;10.30;78.90
66928;DHT22;59882;45.624;11.698;2023-04-01T00:03:18;10.30;78.90
66928;DHT22;59882;45.624;11.698;2023-04-01T00:05:44;10.30;79.30
66928;DHT22;59882;45.624;11.698;2023-04-01T00:08:10;10.20;79.60
66928;DHT22;59882;45.624;11.698;2023-04-01T00:10:36;10.20;79.50
66928;DHT22;59882;45.624;11.698;2023-04-01T00:13:02;10.20;79.40
66928;DHT22;59882;45.624;11.698;2023-04-01T00:15:28;10.20;79.30
66928;DHT22;59882;45.624;11.698;2023-04-01T00:17:53;10.20;79.20
66928;DHT22;59882;45.624;11.698;2023-04-01T00:20:19;10.20;79.20
66928;DHT22;59882;45.624;11.698;2023-04-01T00:22:45;10.20;79.20
66928;DHT22;59882;45.624;11.698;2023-04-01T00:25:11;10.10;79.00
66928;DHT22;59882;45.624;11.698;2023-04-01T00:27:37;10.10;79.10
66928;DHT22;59882;45.624;11.698;2023-04-01T00:30:03;10.00;79.10
66928;DHT22;59882;45.624;11.698;2023-04-01T00:32:28;10.00;79.60
66928;DHT22;59882;45.624;11.698;2023-04-01T00:34:55;9.90;79.70
66928;DHT22;59882;45.624;11.698;2023-04-01T00:37:21;9.90;80.00
66928;DHT22;59882;45.624;11.698;2023-04-01T00:39:48;9.80;80.00
66928;DHT22;59882;45.624;11.698;2023-04-01T00:42:14;9.80;80.00
66928;DHT22;59882;45.624;11.698;2023-04-01T00:44:40;9.80;79.90
66928;DHT22;59882;45.624;11.698;2023-04-01T00:47:06;9.80;80.20
66928;DHT22;59882;45.624;11.698;2023-04-01T00:49:41;9.80;79.90
66928;DHT22;59882;45.624;11.698;2023-04-01T00:52:11;9.80;79.70
66928;DHT22;59882;45.624;11.698;2023-04-01T00:54:38;9.80;79.80
66928;DHT22;59882;45.624;11.698;2023-04-01T00:57:12;9.90;79.80
66928;DHT22;59882;45.624;11.698;2023-04-01T00:59:48;9.90;79.70
66928;DHT22;59882;45.624;11.698;2023-04-01T01:02:15;9.80;79.80
66928;DHT22;59882;45.624;11.698;2023-04-01T01:04:41;9.80;79.70
66928;DHT22;59882;45.624;11.698;2023-04-01T01:10:17;9.80;79.60
66928;DHT22;59882;45.624;11.698;2023-04-01T01:13:08;9.80;79.60
66928;DHT22;59882;45.624;11.698;2023-04-01T01:16:00;9.80;79.50
66928;DHT22;59882;45.624;11.698;2023-04-01T01:21:42;9.80;79.60
66928;DHT22;59882;45.624;11.698;2023-04-01T01:37:29;9.70;79.50
66928;DHT22;59882;45.624;11.698;2023-04-01T01:39:59;9.70;79.20
66928;DHT22;59882;45.624;11.698;2023-04-01T01:42:27;9.70;79.20
66928;DHT22;59882;45.624;11.698;2023-04-01T01:44:55;9.60;79.10
66928;DHT22;59882;45.624;11.698;2023-04-01T01:47:23;9.60;78.90
66928;DHT22;59882;45.624;11.698;2023-04-01T01:49:51;9.50;79.00
66928;DHT22;59882;45.624;11.698;2023-04-01T01:52:18;9.50;78.70
66928;DHT22;59882;45.624;11.698;2023-04-01T01:54:52;9.40;78.60
66928;DHT22;59882;45.624;11.698;2023-04-01T01:57:28;9.40;78.60
66928;DHT22;59882;45.624;11.698;2023-04-01T01:59:58;9.30;78.50
66928;DHT22;59882;45.624;11.698;2023-04-01T02:02:26;9.30;78.10
66928;DHT22;59882;45.624;11.698;2023-04-01T02:04:56;9.20;78.20
66928;DHT22;59882;45.624;11.698;2023-04-01T02:07:31;9.20;78.40
66928;DHT22;59882;45.624;11.698;2023-04-01T02:09:57;9.20;78.70
66928;DHT22;59882;45.624;11.698;2023-04-01T02:12:24;9.20;78.60
66928;DHT22;59882;45.624;11.698;2023-04-01T02:15:10;9.20;78.70
66928;DHT22;59882;45.624;11.698;2023-04-01T02:17:40;9.20;78.90
66928;DHT22;59882;45.624;11.698;2023-04-01T02:20:16;9.30;79.20
66928;DHT22;59882;45.624;11.698;2023-04-01T02:22:57;9.30;78.90
66928;DHT22;59882;45.624;11.698;2023-04-01T02:25:33;9.30;79.10
66928;DHT22;59882;45.624;11.698;2023-04-01T02:28:00;9.30;79.10
66928;DHT22;59882;45.624;11.698;2023-04-01T02:30:28;9.30;79.50
66928;DHT22;59882;45.624;11.698;2023-04-01T02:32:56;9.40;79.70
66928;DHT22;59882;45.624;11.698;2023-04-01T02:35:22;9.40;79.70
66928;DHT22;59882;45.624;11.698;2023-04-01T02:37:49;9.40;79.80
66928;DHT22;59882;45.624;11.698;2023-04-01T02:40:16;9.40;80.00
66928;DHT22;59882;45.624;11.698;2023-04-01T02:42:42;9.40;79.70
66928;DHT22;59882;45.624;11.698;2023-04-01T02:45:09;9.40;79.80
66928;DHT22;59882;45.624;11.698;2023-04-01T02:47:35;9.40;79.70
66928;DHT22;59882;45.624;11.698;2023-04-01T02:50:00;9.40;79.70
66928;DHT22;59882;45.624;11.698;2023-04-01T02:52:27;9.30;79.80
66928;DHT22;59882;45.624;11.698;2023-04-01T02:54:54;9.30;80.10
66928;DHT22;59882;45.624;11.698;2023-04-01T02:57:20;9.30;79.70
66928;DHT22;59882;45.624;11.698;2023-04-01T02:59:46;9.30;79.60
66928;DHT22;59882;45.624;11.698;2023-04-01T03:02:12;9.30;79.40
66928;DHT22;59882;45.624;11.698;2023-04-01T03:04:38;9.30;79.20
66928;DHT22;59882;45.624;11.698;2023-04-01T03:07:03;9.30;78.90
66928;DHT22;59882;45.624;11.698;2023-04-01T03:09:29;9.20;78.70
66928;DHT22;59882;45.624;11.698;2023-04-01T03:11:55;9.20;78.60
66928;DHT22;59882;45.624;11.698;2023-04-01T03:14:21;9.10;78.50
66928;DHT22;59882;45.624;11.698;2023-04-01T03:16:47;9.10;78.40
66928;DHT22;59882;45.624;11.698;2023-04-01T03:19:12;9.10;78.50
66928;DHT22;59882;45.624;11.698;2023-04-01T03:21:38;9.10;78.40
66928;DHT22;59882;45.624;11.698;2023-04-01T03:24:04;9.10;78.50
66928;DHT22;59882;45.624;11.698;2023-04-01T03:26:31;9.10;78.80
66928;DHT22;59882;45.624;11.698;2023-04-01T03:28:57;9.10;78.50
66928;DHT22;59882;45.624;11.698;2023-04-01T03:31:23;9.10;78.30
66928;DHT22;59882;45.624;11.698;2023-04-01T03:33:48;9.10;78.00
66928;DHT22;59882;45.624;11.698;2023-04-01T03:36:14;9.00;77.60
66928;DHT22;59882;45.624;11.698;2023-04-01T03:38:40;8.90;76.80
66928;DHT22;59882;45.624;11.698;2023-04-01T03:41:06;8.80;77.40
66928;DHT22;59882;45.624;11.698;2023-04-01T03:43:32;8.80;77.60
66928;DHT22;59882;45.624;11.698;2023-04-01T03:45:58;8.70;77.80
66928;DHT22;59882;45.624;11.698;2023-04-01T03:48:25;8.60;77.90
66928;DHT22;59882;45.624;11.698;2023-04-01T03:50:51;8.60;78.10
66928;DHT22;59882;45.624;11.698;2023-04-01T03:53:17;8.50;78.10
66928;DHT22;59882;45.624;11.698;2023-04-01T03:55:43;8.50;78.10
66928;DHT22;59882;45.624;11.698;2023-04-01T03:58:09;8.40;78.30
66928;DHT22;59882;45.624;11.698;2023-04-01T04:00:35;8.40;78.30
66928;DHT22;59882;45.624;11.698;2023-04-01T04:03:01;8.30;78.40
66928;DHT22;59882;45.624;11.698;2023-04-01T04:05:26;8.30;78.50
66928;DHT22;59882;45.624;11.698;2023-04-01T04:07:53;8.30;78.50
66928;DHT22;59882;45.624;11.698;2023-04-01T04:10:19;8.20;78.30
66928;DHT22;59882;45.624;11.698;2023-04-01T04:12:45;8.10;78.50
66928;DHT22;59882;45.624;11.698;2023-04-01T04:15:11;8.10;78.50
66928;DHT22;59882;45.624;11.698;2023-04-01T04:17:37;8.10;78.40
66928;DHT22;59882;45.624;11.698;2023-04-01T04:20:04;8.10;78.60
66928;DHT22;59882;45.624;11.698;2023-04-01T04:22:29;8.10;78.80
66928;DHT22;59882;45.624;11.698;2023-04-01T04:24:55;8.10;78.50
66928;DHT22;59882;45.624;11.698;2023-04-01T04:27:21;8.10;78.50
66928;DHT22;59882;45.624;11.698;2023-04-01T04:29:46;8.10;78.80
66928;DHT22;59882;45.624;11.698;2023-04-01T04:32:12;8.20;78.80
66928;DHT22;59882;45.624;11.698;2023-04-01T04:34:38;8.20;78.70
66928;DHT22;59882;45.624;11.698;2023-04-01T04:37:03;8.20;78.40
66928;DHT22;59882;45.624;11.698;2023-04-01T04:39:29;8.10;78.30
66928;DHT22;59882;45.624;11.698;2023-04-01T04:41:55;8.10;78.20
66928;DHT22;59882;45.624;11.698;2023-04-01T04:44:21;8.10;78.10
66928;DHT22;59882;45.624;11.698;2023-04-01T04:46:47;8.00;78.10
66928;DHT22;59882;45.624;11.698;2023-04-01T04:49:12;8.00;78.10
66928;DHT22;59882;45.624;11.698;2023-04-01T04:51:38;7.90;78.30
66928;DHT22;59882;45.624;11.698;2023-04-01T04:54:05;7.90;78.40
66928;DHT22;59882;45.624;11.698;2023-04-01T04:56:32;7.90;78.30
66928;DHT22;59882;45.624;11.698;2023-04-01T04:58:58;7.90;78.30
66928;DHT22;59882;45.624;11.698;2023-04-01T05:01:24;7.90;78.30
66928;DHT22;59882;45.624;11.698;2023-04-01T05:03:50;7.90;78.30
66928;DHT22;59882;45.624;11.698;2023-04-01T05:06:16;7.90;78.40
66928;DHT22;59882;45.624;11.698;2023-04-01T05:08:44;7.90;78.30
66928;DHT22;59882;45.624;11.698;2023-04-01T05:11:12;7.90;78.20
66928;DHT22;59882;45.624;11.698;2023-04-01T05:13:38;7.90;78.00
66928;DHT22;59882;45.624;11.698;2023-04-01T05:16:11;7.90;77.60
66928;DHT22;59882;45.624;11.698;2023-04-01T05:18:37;7.90;76.90
66928;DHT22;59882;45.624;11.698;2023-04-01T05:21:04;7.80;77.10
66928;DHT22;59882;45.624;11.698;2023-04-01T05:23:31;7.80;77.70
66928;DHT22;59882;45.624;11.698;2023-04-01T05:25:57;7.70;77.80
66928;DHT22;59882;45.624;11.698;2023-04-01T05:28:23;7.60;78.20
66928;DHT22;59882;45.624;11.698;2023-04-01T05:30:48;7.60;78.30
66928;DHT22;59882;45.624;11.698;2023-04-01T05:33:14;7.60;78.50
66928;DHT22;59882;45.624;11.698;2023-04-01T05:35:40;7.60;78.80
66928;DHT22;59882;45.624;11.698;2023-04-01T05:38:06;7.70;79.10
66928;DHT22;59882;45.624;11.698;2023-04-01T05:40:33;7.70;78.80
66928;DHT22;59882;45.624;11.698;2023-04-01T05:42:59;7.80;78.80
66928;DHT22;59882;45.624;11.698;2023-04-01T05:45:25;7.80;79.30
66928;DHT22;59882;45.624;11.698;2023-04-01T05:47:51;7.80;79.40
66928;DHT22;59882;45.624;11.698;2023-04-01T05:50:17;7.90;79.60
66928;DHT22;59882;45.624;11.698;2023-04-01T05:52:43;7.90;79.80
66928;DHT22;59882;45.624;11.698;2023-04-01T05:55:10;7.90;80.20
66928;DHT22;59882;45.624;11.698;2023-04-01T05:57:35;7.90;80.10
66928;DHT22;59882;45.624;11.698;2023-04-01T06:00:01;7.90;80.30
66928;DHT22;59882;45.624;11.698;2023-04-01T06:02:27;7.90;80.60
66928;DHT22;59882;45.624;11.698;2023-04-01T06:05:03;8.00;80.90
66928;DHT22;59882;45.624;11.698;2023-04-01T06:07:36;8.00;80.50
66928;DHT22;59882;45.624;11.698;2023-04-01T06:10:13;8.10;80.60
66928;DHT22;59882;45.624;11.698;2023-04-01T06:12:45;8.10;80.50
66928;DHT22;59882;45.624;11.698;2023-04-01T06:15:47;8.20;80.40
66928;DHT22;59882;45.624;11.698;2023-04-01T06:21:04;8.30;80.40
66928;DHT22;59882;45.624;11.698;2023-04-01T06:26:48;8.30;80.50
66928;DHT22;59882;45.624;11.698;2023-04-01T06:29:37;8.40;80.20
66928;DHT22;59882;45.624;11.698;2023-04-01T06:45:58;8.90;80.60
66928;DHT22;59882;45.624;11.698;2023-04-01T06:51:37;9.10;81.10
66928;DHT22;59882;45.624;11.698;2023-04-01T06:54:38;9.10;81.20
66928;DHT22;59882;45.624;11.698;2023-04-01T06:59:55;9.30;81.20
66928;DHT22;59882;45.624;11.698;2023-04-01T07:02:48;9.40;81.00
66928;DHT22;59882;45.624;11.698;2023-04-01T07:05:19;9.50;81.00
66928;DHT22;59882;45.624;11.698;2023-04-01T07:07:48;9.60;81.20
66928;DHT22;59882;45.624;11.698;2023-04-01T07:10:20;9.60;81.50
66928;DHT22;59882;45.624;11.698;2023-04-01T07:13:00;9.70;82.00
66928;DHT22;59882;45.624;11.698;2023-04-01T07:15:38;9.80;82.10
66928;DHT22;59882;45.624;11.698;2023-04-01T07:18:16;9.90;82.40
66928;DHT22;59882;45.624;11.698;2023-04-01T07:20:43;9.90;82.70
66928;DHT22;59882;45.624;11.698;2023-04-01T07:23:29;10.10;82.60
66928;DHT22;59882;45.624;11.698;2023-04-01T07:26:06;10.10;83.10
66928;DHT22;59882;45.624;11.698;2023-04-01T07:28:36;10.20;82.60
66928;DHT22;59882;45.624;11.698;2023-04-01T07:31:25;10.30;82.80
66928;DHT22;59882;45.624;11.698;2023-04-01T07:34:04;10.40;81.90
66928;DHT22;59882;45.624;11.698;2023-04-01T07:39:12;10.50;81.20
66928;DHT22;59882;45.624;11.698;2023-04-01T07:41:55;10.60;81.00
66928;DHT22;59882;45.624;11.698;2023-04-01T07:47:51;10.60;80.90
66928;DHT22;59882;45.624;11.698;2023-04-01T07:50:29;10.80;80.80
66928;DHT22;59882;45.624;11.698;2023-04-01T07:53:15;10.80;80.80
66928;DHT22;59882;45.624;11.698;2023-04-01T07:56:09;10.90;80.60
66928;DHT22;59882;45.624;11.698;2023-04-01T08:31:31;11.80;78.60
66928;DHT22;59882;45.624;11.698;2023-04-01T08:33:57;11.90;78.60
66928;DHT22;59882;45.624;11.698;2023-04-01T08:36:41;11.90;78.80
66928;DHT22;59882;45.624;11.698;2023-04-01T08:39:16;11.90;78.30
66928;DHT22;59882;45.624;11.698;2023-04-01T08:45:18;12.10;77.50
66928;DHT22;59882;45.624;11.698;2023-04-01T08:56:15;12.40;76.90
66928;DHT22;59882;45.624;11.698;2023-04-01T09:20:39;13.10;75.90
66928;DHT22;59882;45.624;11.698;2023-04-01T09:23:26;13.30;74.90
66928;DHT22;59882;45.624;11.698;2023-04-01T09:37:48;13.60;73.00
66928;DHT22;59882;45.624;11.698;2023-04-01T09:59:12;14.40;69.10
66928;DHT22;59882;45.624;11.698;2023-04-01T10:51:10;15.70;66.30
66928;DHT22;59882;45.624;11.698;2023-04-01T10:56:58;15.90;66.10
66928;DHT22;59882;45.624;11.698;2023-04-01T11:11:47;16.30;63.90
66928;DHT22;59882;45.624;11.698;2023-04-01T11:14:35;16.40;62.30
66928;DHT22;59882;45.624;11.698;2023-04-01T11:17:25;16.40;64.70
66928;DHT22;59882;45.624;11.698;2023-04-01T11:31:15;17.00;62.20
66928;DHT22;59882;45.624;11.698;2023-04-01T11:33:54;17.10;60.30
66928;DHT22;59882;45.624;11.698;2023-04-01T11:39:32;17.10;61.00
66928;DHT22;59882;45.624;11.698;2023-04-01T11:45:03;17.10;61.70
66928;DHT22;59882;45.624;11.698;2023-04-01T11:47:57;17.10;61.70
66928;DHT22;59882;45.624;11.698;2023-04-01T11:50:44;17.20;61.70
66928;DHT22;59882;45.624;11.698;2023-04-01T11:53:31;17.30;61.70
66928;DHT22;59882;45.624;11.698;2023-04-01T11:59:12;17.50;61.10
66928;DHT22;59882;45.624;11.698;2023-04-01T12:01:59;17.60;60.40
66928;DHT22;59882;45.624;11.698;2023-04-01T12:07:41;17.90;61.60
66928;DHT22;59882;45.624;11.698;2023-04-01T12:10:38;18.20;60.70
66928;DHT22;59882;45.624;11.698;2023-04-01T12:16:27;18.70;58.20
66928;DHT22;59882;45.624;11.698;2023-04-01T12:24:46;19.10;54.80
66928;DHT22;59882;45.624;11.698;2023-04-01T12:27:27;19.40;56.00
66928;DHT22;59882;45.624;11.698;2023-04-01T12:32:47;19.70;54.10
66928;DHT22;59882;45.624;11.698;2023-04-01T12:35:20;19.90;51.50
66928;DHT22;59882;45.624;11.698;2023-04-01T12:43:35;20.60;48.70
66928;DHT22;59882;45.624;11.698;2023-04-01T12:46:13;22.30;46.90
66928;DHT22;59882;45.624;11.698;2023-04-01T12:59:50;24.90;41.60
66928;DHT22;59882;45.624;11.698;2023-04-01T13:05:36;28.20;37.20
66928;DHT22;59882;45.624;11.698;2023-04-01T13:13:19;32.20;31.50
66928;DHT22;59882;45.624;11.698;2023-04-01T13:15:51;33.10;30.70
66928;DHT22;59882;45.624;11.698;2023-04-01T13:27:01;34.40;26.10
66928;DHT22;59882;45.624;11.698;2023-04-01T13:29:39;34.70;26.40
66928;DHT22;59882;45.624;11.698;2023-04-01T13:40:15;34.90;24.10
66928;DHT22;59882;45.624;11.698;2023-04-01T13:42:52;34.90;26.40
66928;DHT22;59882;45.624;11.698;2023-04-01T13:45:24;34.70;24.60
66928;DHT22;59882;45.624;11.698;2023-04-01T14:02:29;34.70;24.70
66928;DHT22;59882;45.624;11.698;2023-04-01T14:05:14;34.70;24.40
66928;DHT22;59882;45.624;11.698;2023-04-01T14:07:56;34.80;24.70
66928;DHT22;59882;45.624;11.698;2023-04-01T14:13:12;35.00;24.80
66928;DHT22;59882;45.624;11.698;2023-04-01T14:23:57;34.90;22.20
66928;DHT22;59882;45.624;11.698;2023-04-01T14:29:24;34.90;22.60
66928;DHT22;59882;45.624;11.698;2023-04-01T14:32:24;35.00;21.50
66928;DHT22;59882;45.624;11.698;2023-04-01T14:40:55;34.90;21.90
66928;DHT22;59882;45.624;11.698;2023-04-01T14:46:19;34.90;23.00
66928;DHT22;59882;45.624;11.698;2023-04-01T14:51:41;34.60;21.90
66928;DHT22;59882;45.624;11.698;2023-04-01T14:54:19;34.60;22.60
66928;DHT22;59882;45.624;11.698;2023-04-01T14:57:22;34.40;23.00
66928;DHT22;59882;45.624;11.698;2023-04-01T14:59:59;34.20;21.40
66928;DHT22;59882;45.624;11.698;2023-04-01T15:02:42;34.10;23.20
66928;DHT22;59882;45.624;11.698;2023-04-01T15:05:31;34.10;23.50
66928;DHT22;59882;45.624;11.698;2023-04-01T15:27:21;33.10;24.10
66928;DHT22;59882;45.624;11.698;2023-04-01T15:38:25;32.30;24.80
66928;DHT22;59882;45.624;11.698;2023-04-01T15:43:52;32.00;25.50
66928;DHT22;59882;45.624;11.698;2023-04-01T15:46:26;31.90;25.60
66928;DHT22;59882;45.624;11.698;2023-04-01T15:48:57;31.70;25.60
66928;DHT22;59882;45.624;11.698;2023-04-01T15:51:43;31.50;25.90
66928;DHT22;59882;45.624;11.698;2023-04-01T16:01:59;31.00;27.20
66928;DHT22;59882;45.624;11.698;2023-04-01T16:10:09;30.90;26.70
66928;DHT22;59882;45.624;11.698;2023-04-01T16:23:20;30.00;27.70
66928;DHT22;59882;45.624;11.698;2023-04-01T16:26:19;29.90;27.50
66928;DHT22;59882;45.624;11.698;2023-04-01T16:31:46;29.70;27.30
66928;DHT22;59882;45.624;11.698;2023-04-01T16:34:44;29.40;27.40
66928;DHT22;59882;45.624;11.698;2023-04-01T16:37:13;29.20;27.90
66928;DHT22;59882;45.624;11.698;2023-04-01T16:40:22;29.00;29.00
66928;DHT22;59882;45.624;11.698;2023-04-01T16:49:30;28.30;29.50
66928;DHT22;59882;45.624;11.698;2023-04-01T16:51:24;28.10;29.80
66928;DHT22;59882;45.624;11.698;2023-04-01T16:54:00;27.90;29.80
66928;DHT22;59882;45.624;11.698;2023-04-01T16:56:41;27.50;30.30
66928;DHT22;59882;45.624;11.698;2023-04-01T16:59:34;26.90;31.00
66928;DHT22;59882;45.624;11.698;2023-04-01T17:07:36;25.20;34.10
66928;DHT22;59882;45.624;11.698;2023-04-01T17:15:54;23.80;36.90
66928;DHT22;59882;45.624;11.698;2023-04-01T17:41:36;21.30;49.00
66928;DHT22;59882;45.624;11.698;2023-04-01T17:47:03;20.90;50.10
66928;DHT22;59882;45.624;11.698;2023-04-01T17:49:57;20.70;50.10
66928;DHT22;59882;45.624;11.698;2023-04-01T17:58:03;20.30;50.60
66928;DHT22;59882;45.624;11.698;2023-04-01T18:00:51;20.20;49.70
66928;DHT22;59882;45.624;11.698;2023-04-01T18:06:31;20.00;52.00
66928;DHT22;59882;45.624;11.698;2023-04-01T18:14:14;19.50;51.70
66928;DHT22;59882;45.624;11.698;2023-04-01T18:22:21;19.10;53.60
66928;DHT22;59882;45.624;11.698;2023-04-01T18:31:23;18.70;55.00
66928;DHT22;59882;45.624;11.698;2023-04-01T18:36:51;18.50;54.50
66928;DHT22;59882;45.624;11.698;2023-04-01T18:42:41;18.30;55.70
66928;DHT22;59882;45.624;11.698;2023-04-01T18:45:17;18.10;56.30
66928;DHT22;59882;45.624;11.698;2023-04-01T18:50:55;17.90;57.20
66928;DHT22;59882;45.624;11.698;2023-04-01T18:54:17;17.70;56.30
66928;DHT22;59882;45.624;11.698;2023-04-01T18:56:37;17.60;58.30
66928;DHT22;59882;45.624;11.698;2023-04-01T19:05:05;17.30;57.90
66928;DHT22;59882;45.624;11.698;2023-04-01T19:07:41;17.20;58.40
66928;DHT22;59882;45.624;11.698;2023-04-01T19:22:46;16.90;59.80
66928;DHT22;59882;45.624;11.698;2023-04-01T19:25:17;16.80;60.60
66928;DHT22;59882;45.624;11.698;2023-04-01T19:28:07;16.80;60.80
66928;DHT22;59882;45.624;11.698;2023-04-01T19:38:41;16.60;61.00
66928;DHT22;59882;45.624;11.698;2023-04-01T19:44:12;16.50;61.80
66928;DHT22;59882;45.624;11.698;2023-04-01T19:46:49;16.50;62.30
66928;DHT22;59882;45.624;11.698;2023-04-01T20:19:29;15.80;65.50
66928;DHT22;59882;45.624;11.698;2023-04-01T20:22:00;15.70;65.60
66928;DHT22;59882;45.624;11.698;2023-04-01T20:27:05;15.70;65.50
66928;DHT22;59882;45.624;11.698;2023-04-01T20:40:52;15.60;66.20
66928;DHT22;59882;45.624;11.698;2023-04-01T20:43:32;15.60;65.00
66928;DHT22;59882;45.624;11.698;2023-04-01T20:51:31;15.60;65.40
66928;DHT22;59882;45.624;11.698;2023-04-01T20:57:16;15.70;65.00
66928;DHT22;59882;45.624;11.698;2023-04-01T21:02:37;15.70;64.50
66928;DHT22;59882;45.624;11.698;2023-04-01T21:05:31;15.70;64.60
66928;DHT22;59882;45.624;11.698;2023-04-01T21:16:11;15.70;65.50
66928;DHT22;59882;45.624;11.698;2023-04-01T21:19:02;15.60;64.70
66928;DHT22;59882;45.624;11.698;2023-04-01T21:30:19;15.60;65.00
66928;DHT22;59882;45.624;11.698;2023-04-01T21:33:07;15.60;65.10
66928;DHT22;59882;45.624;11.698;2023-04-01T21:36:02;15.60;65.10
66928;DHT22;59882;45.624;11.698;2023-04-01T21:44:38;15.60;65.50
66928;DHT22;59882;45.624;11.698;2023-04-01T21:49:56;15.50;65.80
66928;DHT22;59882;45.624;11.698;2023-04-01T22:04:35;15.40;66.00
66928;DHT22;59882;45.624;11.698;2023-04-01T22:07:17;15.40;65.40
66928;DHT22;59882;45.624;11.698;2023-04-01T22:15:20;15.30;65.40
66928;DHT22;59882;45.624;11.698;2023-04-01T22:18:13;15.30;65.60
66928;DHT22;59882;45.624;11.698;2023-04-01T22:20:57;15.30;65.60
66928;DHT22;59882;45.624;11.698;2023-04-01T22:23:37;15.30;65.40
66928;DHT22;59882;45.624;11.698;2023-04-01T22:29:27;15.30;65.60
66928;DHT22;59882;45.624;11.698;2023-04-01T22:40:35;15.20;65.40
66928;DHT22;59882;45.624;11.698;2023-04-01T22:43:16;15.20;65.10
66928;DHT22;59882;45.624;11.698;2023-04-01T22:49:24;15.10;64.60
66928;DHT22;59882;45.624;11.698;2023-04-01T22:56:53;14.90;65.70
66928;DHT22;59882;45.624;11.698;2023-04-01T23:02:31;14.40;67.40
66928;DHT22;59882;45.624;11.698;2023-04-01T23:05:03;14.40;66.50
66928;DHT22;59882;45.624;11.698;2023-04-01T23:13:12;14.30;69.30
66928;DHT22;59882;45.624;11.698;2023-04-01T23:15:39;14.30;68.60
66928;DHT22;59882;45.624;11.698;2023-04-01T23:18:20;14.40;68.80
66928;DHT22;59882;45.624;11.698;2023-04-01T23:26:08;14.50;68.20
66928;DHT22;59882;45.624;11.698;2023-04-01T23:28:50;14.50;68.10
66928;DHT22;59882;45.624;11.698;2023-04-01T23:31:27;14.60;68.10
66928;DHT22;59882;45.624;11.698;2023-04-01T23:34:05;14.60;67.40
66928;DHT22;59882;45.624;11.698;2023-04-01T23:36:48;14.60;67.60
66928;DHT22;59882;45.624;11.698;2023-04-01T23:42:24;14.50;67.60
66928;DHT22;59882;45.624;11.698;2023-04-01T23:45:00;14.50;69.00
66928;DHT22;59882;45.624;11.698;2023-04-01T23:47:31;14.50;67.80
66928;DHT22;59882;45.624;11.698;2023-04-01T23:50:01;14.50;68.40
66928;DHT22;59882;45.624;11.698;2023-04-01T23:52:39;14.50;67.90
